Time,TemperatureF,DewpointF,PressureIn,WindDirection,WindDirectionDegrees,WindSpeedMPH,WindSpeedGustMPH,Humidity,HourlyPrecipIn,Conditions,Clouds,dailyrainin,SoftwareType,DateUTC
2013-03-09 00:00:00,33.9,29.3,30.12,WSW,255,4.0,5.0,83,0.00,,CLR,0.00,VWS V14.01,2013-03-09 08:00:00,
2013-03-09 00:30:00,34.7,29.5,30.13,WSW,256,3.0,5.0,81,0.00,,CLR,0.00,VWS V14.01,2013-03-09 08:30:00,
2013-03-09 01:00:00,32.5,27.6,30.14,WSW,257,0.0,6.0,82,0.00,,CLR,0.00,VWS V14.01,2013-03-09 09:00:00,
2013-03-09 01:30:00,31.6,27.6,30.14,WSW,257,2.0,3.0,85,0.00,,CLR,0.00,VWS V14.01,2013-03-09 09:30:00,
2013-03-09 02:00:00,32.4,29.0,30.15,WSW,257,4.0,6.0,87,0.00,,CLR,0.00,VWS V14.01,2013-03-09 10:00:00,
2013-03-09 02:30:00,31.9,27.9,30.15,WSW,258,3.0,5.0,85,0.00,,CLR,0.00,VWS V14.01,2013-03-09 10:30:00,
2013-03-09 03:00:00,30.7,26.7,30.16,WSW,257,0.0,4.0,85,0.00,,CLR,0.00,VWS V14.01,2013-03-09 11:00:00,
2013-03-09 03:30:00,29.4,26.6,30.17,WSW,258,0.0,2.0,89,0.00,,CLR,0.00,VWS V14.01,2013-03-09 11:30:00,
2013-03-09 04:00:00,30.9,28.0,30.18,WSW,258,0.0,2.0,89,0.00,,CLR,0.00,VWS V14.01,2013-03-09 12:00:00,
2013-03-09 04:30:00,30.5,27.9,30.20,WSW,258,0.0,1.0,90,0.00,,CLR,0.00,VWS V14.01,2013-03-09 12:30:00,
2013-03-09 05:00:00,29.1,26.3,30.20,WSW,258,0.0,2.0,89,0.00,,CLR,0.00,VWS V14.01,2013-03-09 13:00:00,
2013-03-09 05:30:00,28.9,26.1,30.21,WSW,257,0.0,0.0,89,0.00,,CLR,0.00,VWS V14.01,2013-03-09 13:30:00,
2013-03-09 06:00:00,28.3,25.8,30.21,WSW,258,0.0,2.0,90,0.00,,CLR,0.00,VWS V14.01,2013-03-09 14:00:00,
2013-03-09 06:30:00,27.7,25.4,30.23,WSW,257,2.0,2.0,91,0.00,,CLR,0.00,VWS V14.01,2013-03-09 14:30:00,
2013-03-09 07:00:00,30.8,28.0,30.24,WSW,257,0.0,3.0,89,0.00,,CLR,0.00,VWS V14.01,2013-03-09 15:00:00,
2013-03-09 07:30:00,32.2,28.5,30.25,WSW,258,0.0,3.0,86,0.00,,CLR,0.00,VWS V14.01,2013-03-09 15:30:00,
2013-03-09 08:00:00,34.0,29.4,30.26,WSW,258,2.0,4.0,83,0.00,,CLR,0.00,VWS V14.01,2013-03-09 16:00:00,
2013-03-09 08:30:00,38.4,32.5,30.27,WSW,258,2.0,3.0,79,0.00,,CLR,0.00,VWS V14.01,2013-03-09 16:30:00,
2013-03-09 09:00:00,40.1,32.2,30.28,WSW,258,2.0,5.0,73,0.00,,CLR,0.00,VWS V14.01,2013-03-09 17:00:00,
2013-03-09 09:30:00,41.7,32.7,30.29,WSW,258,2.0,6.0,70,0.00,,CLR,0.00,VWS V14.01,2013-03-09 17:30:00,
2013-03-09 10:00:00,45.0,34.0,30.29,WSW,258,3.0,5.0,65,0.00,,CLR,0.00,VWS V14.01,2013-03-09 18:00:00,
2013-03-09 10:30:00,45.2,32.6,30.31,WSW,258,3.0,8.0,61,0.00,,CLR,0.00,VWS V14.01,2013-03-09 18:30:00,
2013-03-09 11:00:00,45.9,32.4,30.31,West,279,1.0,8.0,59,0.00,,CLR,0.00,VWS V14.01,2013-03-09 19:00:00,
2013-03-09 11:30:00,48.2,31.9,30.32,WNW,295,4.0,9.0,53,0.00,,CLR,0.00,VWS V14.01,2013-03-09 19:30:00,
2013-03-09 12:00:00,50.6,32.2,30.31,WNW,297,3.0,7.0,49,0.00,,CLR,0.00,VWS V14.01,2013-03-09 20:00:00,
2013-03-09 12:30:00,51.9,31.8,30.32,WNW,295,2.0,6.0,46,0.00,,CLR,0.00,VWS V14.01,2013-03-09 20:30:00,
2013-03-09 13:00:00,52.9,32.7,30.31,WNW,287,5.0,7.0,46,0.00,,CLR,0.00,VWS V14.01,2013-03-09 21:00:00,
2013-03-09 13:30:00,54.2,31.0,30.31,WSW,256,6.0,8.0,41,0.00,,CLR,0.00,VWS V14.01,2013-03-09 21:30:00,
2013-03-09 14:00:00,54.1,30.3,30.30,SW,232,4.0,8.0,40,0.00,,CLR,0.00,VWS V14.01,2013-03-09 22:00:00,
2013-03-09 14:30:00,55.4,28.2,30.30,WSW,241,2.0,8.0,35,0.00,,CLR,0.00,VWS V14.01,2013-03-09 22:30:00,
2013-03-09 15:00:00,56.2,23.5,30.31,SW,231,4.0,8.0,28,0.00,,CLR,0.00,VWS V14.01,2013-03-09 23:00:00,
2013-03-09 15:30:00,55.1,29.3,30.32,South,186,4.0,11.0,37,0.00,,CLR,0.00,VWS V14.01,2013-03-09 23:30:00,
2013-03-09 16:00:00,54.5,27.4,30.30,SSE,167,8.0,13.0,35,0.00,,CLR,0.00,VWS V14.01,2013-03-10 00:00:00,
2013-03-09 16:30:00,54.2,27.9,30.30,SSE,161,7.0,12.0,36,0.00,,CLR,0.00,VWS V14.01,2013-03-10 00:30:00,
2013-03-09 17:00:00,53.6,28.0,30.30,SSE,151,10.0,11.0,37,0.00,,CLR,0.00,VWS V14.01,2013-03-10 01:00:00,
2013-03-09 17:30:00,52.0,29.0,30.30,SSE,149,8.0,12.0,41,0.00,,CLR,0.00,VWS V14.01,2013-03-10 01:30:00,
2013-03-09 18:00:00,49.5,29.6,30.31,SSE,147,7.0,8.0,46,0.00,,CLR,0.00,VWS V14.01,2013-03-10 02:00:00,
2013-03-09 18:30:00,47.8,27.5,30.31,SE,142,7.0,9.0,45,0.00,,CLR,0.00,VWS V14.01,2013-03-10 02:30:00,
2013-03-09 19:00:00,46.1,29.0,30.32,SE,139,7.0,9.0,51,0.00,,CLR,0.00,VWS V14.01,2013-03-10 03:00:00,
2013-03-09 19:30:00,45.3,28.7,30.32,SE,136,7.0,9.0,52,0.00,,CLR,0.00,VWS V14.01,2013-03-10 03:30:00,
2013-03-09 20:00:00,43.5,29.7,30.32,SE,129,9.0,11.0,58,0.00,,CLR,0.00,VWS V14.01,2013-03-10 04:00:00,
2013-03-09 20:30:00,42.1,30.4,30.33,SE,136,10.0,13.0,63,0.00,,CLR,0.00,VWS V14.01,2013-03-10 04:30:00,
2013-03-09 21:00:00,40.7,29.9,30.34,SE,139,9.0,11.0,65,0.00,,CLR,0.00,VWS V14.01,2013-03-10 05:00:00,
2013-03-09 21:30:00,40.3,30.2,30.34,SE,141,8.0,11.0,67,0.00,,CLR,0.00,VWS V14.01,2013-03-10 05:30:00,
2013-03-09 22:00:00,38.9,29.2,30.34,SE,141,6.0,9.0,68,0.00,,CLR,0.00,VWS V14.01,2013-03-10 06:00:00,
2013-03-09 22:30:00,38.8,27.7,30.33,SE,141,5.0,8.0,64,0.00,,CLR,0.00,VWS V14.01,2013-03-10 06:30:00,
2013-03-09 23:00:00,39.4,27.5,30.33,South,173,5.0,9.0,62,0.00,,CLR,0.00,VWS V14.01,2013-03-10 07:00:00,
2013-03-09 23:30:00,37.5,29.6,30.33,South,173,4.0,6.0,73,0.00,,CLR,0.00,VWS V14.01,2013-03-10 07:30:00,